LiveATC.Net - Listen to live air traffic control over the Internet! Contact for advertising information

ICAO: KBCT  IATA: BCT   Airport: Boca Raton Airport
City: Boca Raton   State/Province: Florida
Country: United States   Continent: North America
KBCT METAR Weather: KBCT 140355Z AUTO 25005KT 10SM SCT110 26/22 A2996 RMK AO2 LTG DSNT NE AND SE
KBCT Flight Activity (FlightAware)
KBCT Airport Info   (AirNav) (iFlightPlanner)
KBCT VFR Sectional Chart   (iFlightPlanner) 
KBCT IFR Low Chart   (iFlightPlanner) 
KBCT Gnd/Twr
Feed Status: UP   Listeners: 3
Listen right in your browser - requires Flash (in browser, requires Flash)
Click here to listen with your own player (launches your MP3 player)
KBCT Gnd/Twr Audio Archives
Boca Raton Ground121.800
Boca Raton Tower118.425


Unauthorized use prohibited. See Terms of Service

Find LiveATC Audio Streams

Airport/ARTCC Code

(e.g., 124.400, 128.75)
Site-wide search

Browse LiveATC Feeds
LiveATC Coverage Map
Top 50 LiveATC Feeds
Bad Weather Areas

Offer a LiveATC Feed
Press Inquiries

LiveATC on iPhone
LiveATC on Android

Windows Phone
Windows 8/10

LiveATC Mobile
(Mobile browser)

ATC Audio Archives
Interesting Recordings

LiveATC Forums

Home Page
Make a Donation
LiveATC Bookstore

Terms of Use
Privacy Policy

ATC/Radar Sites
U.S. ARTCC Freqs
Canadian Air Freqs


FAA Airport Status
Nat'l Airspace Status
Arrival Demand Charts

Server Software By:

Please make a donation to help us keep growing!